sensor_id;sensor_type;location;lat;lon;timestamp;temperature;humidity
64638;HTU21D;51049;45.046;38.950;2022-11-18T00:01:08;14.43;68.23
64638;HTU21D;51049;45.046;38.950;2022-11-18T00:03:35;14.45;68.20
64638;HTU21D;51049;45.046;38.950;2022-11-18T00:06:02;14.44;68.22
64638;HTU21D;51049;45.046;38.950;2022-11-18T00:08:28;14.42;68.20
64638;HTU21D;51049;45.046;38.950;2022-11-18T00:10:55;14.39;68.26
64638;HTU21D;51049;45.046;38.950;2022-11-18T00:13:24;14.37;68.35
64638;HTU21D;51049;45.046;38.950;2022-11-18T00:16:14;14.37;68.36
64638;HTU21D;51049;45.046;38.950;2022-11-18T00:18:42;14.36;68.36
64638;HTU21D;51049;45.046;38.950;2022-11-18T00:21:10;14.36;68.40
64638;HTU21D;51049;45.046;38.950;2022-11-18T00:23:37;14.38;68.46
64638;HTU21D;51049;45.046;38.950;2022-11-18T00:26:11;14.39;68.45
64638;HTU21D;51049;45.046;38.950;2022-11-18T00:28:40;14.40;68.41
64638;HTU21D;51049;45.046;38.950;2022-11-18T00:31:12;14.40;68.46
64638;HTU21D;51049;45.046;38.950;2022-11-18T00:33:41;14.40;68.47
64638;HTU21D;51049;45.046;38.950;2022-11-18T00:36:09;14.40;68.56
64638;HTU21D;51049;45.046;38.950;2022-11-18T00:38:36;14.38;68.46
64638;HTU21D;51049;45.046;38.950;2022-11-18T00:41:07;14.32;68.52
64638;HTU21D;51049;45.046;38.950;2022-11-18T00:43:36;14.24;68.66
64638;HTU21D;51049;45.046;38.950;2022-11-18T00:46:05;14.20;68.84
64638;HTU21D;51049;45.046;38.950;2022-11-18T00:48:31;14.13;68.89
64638;HTU21D;51049;45.046;38.950;2022-11-18T00:51:12;14.06;68.91
64638;HTU21D;51049;45.046;38.950;2022-11-18T00:53:41;13.98;69.04
64638;HTU21D;51049;45.046;38.950;2022-11-18T00:56:08;13.91;69.13
64638;HTU21D;51049;45.046;38.950;2022-11-18T00:58:35;13.82;69.26
64638;HTU21D;51049;45.046;38.950;2022-11-18T01:01:08;13.75;69.57
64638;HTU21D;51049;45.046;38.950;2022-11-18T01:03:34;13.68;69.45
64638;HTU21D;51049;45.046;38.950;2022-11-18T01:06:01;13.63;69.50
64638;HTU21D;51049;45.046;38.950;2022-11-18T01:08:27;13.59;69.55
64638;HTU21D;51049;45.046;38.950;2022-11-18T01:10:53;13.56;69.59
64638;HTU21D;51049;45.046;38.950;2022-11-18T01:13:22;13.52;69.65
64638;HTU21D;51049;45.046;38.950;2022-11-18T01:15:56;13.51;69.78
64638;HTU21D;51049;45.046;38.950;2022-11-18T01:18:23;13.53;70.34
64638;HTU21D;51049;45.046;38.950;2022-11-18T01:20:50;13.55;70.23
64638;HTU21D;51049;45.046;38.950;2022-11-18T01:23:17;13.60;70.29
64638;HTU21D;51049;45.046;38.950;2022-11-18T01:25:45;13.60;70.45
64638;HTU21D;51049;45.046;38.950;2022-11-18T01:28:12;13.62;70.45
64638;HTU21D;51049;45.046;38.950;2022-11-18T01:30:39;13.65;70.48
64638;HTU21D;51049;45.046;38.950;2022-11-18T01:33:08;13.68;70.51
64638;HTU21D;51049;45.046;38.950;2022-11-18T01:35:40;13.70;70.47
64638;HTU21D;51049;45.046;38.950;2022-11-18T01:38:06;13.75;71.36
64638;HTU21D;51049;45.046;38.950;2022-11-18T01:40:33;13.76;70.78
64638;HTU21D;51049;45.046;38.950;2022-11-18T01:43:00;13.78;70.70
64638;HTU21D;51049;45.046;38.950;2022-11-18T01:45:41;13.78;70.68
64638;HTU21D;51049;45.046;38.950;2022-11-18T01:50:37;13.77;70.69
64638;HTU21D;51049;45.046;38.950;2022-11-18T01:53:12;13.77;70.71
64638;HTU21D;51049;45.046;38.950;2022-11-18T01:55:42;13.78;70.65
64638;HTU21D;51049;45.046;38.950;2022-11-18T01:58:24;13.78;70.67
64638;HTU21D;51049;45.046;38.950;2022-11-18T02:00:52;13.82;71.16
64638;HTU21D;51049;45.046;38.950;2022-11-18T02:03:19;13.85;71.03
64638;HTU21D;51049;45.046;38.950;2022-11-18T02:05:49;13.89;70.90
64638;HTU21D;51049;45.046;38.950;2022-11-18T02:08:18;13.90;70.84
64638;HTU21D;51049;45.046;38.950;2022-11-18T02:10:48;13.89;71.00
64638;HTU21D;51049;45.046;38.950;2022-11-18T02:13:18;13.92;71.14
64638;HTU21D;51049;45.046;38.950;2022-11-18T02:18:54;13.96;71.15
64638;HTU21D;51049;45.046;38.950;2022-11-18T02:24:40;13.93;71.05
64638;HTU21D;51049;45.046;38.950;2022-11-18T02:27:40;13.90;71.13
64638;HTU21D;51049;45.046;38.950;2022-11-18T02:30:12;13.86;71.19
64638;HTU21D;51049;45.046;38.950;2022-11-18T02:32:56;13.84;71.21
64638;HTU21D;51049;45.046;38.950;2022-11-18T02:35:45;13.83;71.22
64638;HTU21D;51049;45.046;38.950;2022-11-18T02:38:15;13.83;71.19
64638;HTU21D;51049;45.046;38.950;2022-11-18T02:40:51;13.82;71.22
64638;HTU21D;51049;45.046;38.950;2022-11-18T02:46:15;13.81;71.26
64638;HTU21D;51049;45.046;38.950;2022-11-18T02:48:47;13.82;71.32
64638;HTU21D;51049;45.046;38.950;2022-11-18T02:51:17;13.84;71.51
64638;HTU21D;51049;45.046;38.950;2022-11-18T02:53:48;13.86;71.45
64638;HTU21D;51049;45.046;38.950;2022-11-18T02:56:16;13.88;71.50
64638;HTU21D;51049;45.046;38.950;2022-11-18T02:58:43;13.90;71.46
64638;HTU21D;51049;45.046;38.950;2022-11-18T03:01:27;13.91;71.48
64638;HTU21D;51049;45.046;38.950;2022-11-18T03:03:54;13.93;71.60
64638;HTU21D;51049;45.046;38.950;2022-11-18T03:06:34;13.95;71.67
64638;HTU21D;51049;45.046;38.950;2022-11-18T03:09:12;13.98;71.78
64638;HTU21D;51049;45.046;38.950;2022-11-18T03:21:01;14.03;71.75
64638;HTU21D;51049;45.046;38.950;2022-11-18T03:23:43;13.99;71.67
64638;HTU21D;51049;45.046;38.950;2022-11-18T03:26:21;13.98;71.69
64638;HTU21D;51049;45.046;38.950;2022-11-18T03:28:57;13.96;71.71
64638;HTU21D;51049;45.046;38.950;2022-11-18T03:31:39;13.97;71.75
64638;HTU21D;51049;45.046;38.950;2022-11-18T03:34:30;13.96;71.80
64638;HTU21D;51049;45.046;38.950;2022-11-18T03:37:01;14.00;71.81
64638;HTU21D;51049;45.046;38.950;2022-11-18T03:39:31;14.04;71.77
64638;HTU21D;51049;45.046;38.950;2022-11-18T03:42:13;14.05;71.74
64638;HTU21D;51049;45.046;38.950;2022-11-18T03:44:47;14.06;71.75
64638;HTU21D;51049;45.046;38.950;2022-11-18T03:47:29;14.11;71.80
64638;HTU21D;51049;45.046;38.950;2022-11-18T03:50:05;14.18;71.84
64638;HTU21D;51049;45.046;38.950;2022-11-18T03:52:34;14.33;71.83
64638;HTU21D;51049;45.046;38.950;2022-11-18T03:55:08;14.48;71.68
64638;HTU21D;51049;45.046;38.950;2022-11-18T04:00:35;14.79;71.29
64638;HTU21D;51049;45.046;38.950;2022-11-18T04:03:06;14.89;71.16
64638;HTU21D;51049;45.046;38.950;2022-11-18T04:05:37;14.96;71.05
64638;HTU21D;51049;45.046;38.950;2022-11-18T04:08:08;15.00;71.00
64638;HTU21D;51049;45.046;38.950;2022-11-18T04:10:48;15.02;70.97
64638;HTU21D;51049;45.046;38.950;2022-11-18T04:13:24;15.03;70.95
64638;HTU21D;51049;45.046;38.950;2022-11-18T04:15:52;15.07;70.92
64638;HTU21D;51049;45.046;38.950;2022-11-18T04:18:19;15.11;70.92
64638;HTU21D;51049;45.046;38.950;2022-11-18T04:20:45;15.13;70.86
64638;HTU21D;51049;45.046;38.950;2022-11-18T04:23:15;15.15;70.82
64638;HTU21D;51049;45.046;38.950;2022-11-18T04:25:41;15.17;70.79
64638;HTU21D;51049;45.046;38.950;2022-11-18T04:28:07;15.15;70.77
64638;HTU21D;51049;45.046;38.950;2022-11-18T04:30:34;15.14;70.77
64638;HTU21D;51049;45.046;38.950;2022-11-18T04:33:00;15.12;70.80
64638;HTU21D;51049;45.046;38.950;2022-11-18T04:35:27;15.12;70.81
64638;HTU21D;51049;45.046;38.950;2022-11-18T04:37:53;15.11;70.81
64638;HTU21D;51049;45.046;38.950;2022-11-18T04:40:19;15.08;70.84
64638;HTU21D;51049;45.046;38.950;2022-11-18T04:42:46;15.06;70.84
64638;HTU21D;51049;45.046;38.950;2022-11-18T04:45:15;15.08;70.84
64638;HTU21D;51049;45.046;38.950;2022-11-18T04:47:41;15.09;70.84
64638;HTU21D;51049;45.046;38.950;2022-11-18T04:50:07;15.10;70.83
64638;HTU21D;51049;45.046;38.950;2022-11-18T04:52:33;15.11;70.79
64638;HTU21D;51049;45.046;38.950;2022-11-18T04:55:00;15.10;70.79
64638;HTU21D;51049;45.046;38.950;2022-11-18T04:57:26;15.13;70.78
64638;HTU21D;51049;45.046;38.950;2022-11-18T04:59:52;15.12;70.75
64638;HTU21D;51049;45.046;38.950;2022-11-18T05:02:21;15.13;70.74
64638;HTU21D;51049;45.046;38.950;2022-11-18T05:04:50;15.10;70.76
64638;HTU21D;51049;45.046;38.950;2022-11-18T05:07:22;15.08;70.74
64638;HTU21D;51049;45.046;38.950;2022-11-18T05:10:10;15.07;70.78
64638;HTU21D;51049;45.046;38.950;2022-11-18T05:12:36;15.06;70.81
64638;HTU21D;51049;45.046;38.950;2022-11-18T05:15:21;15.04;70.86
64638;HTU21D;51049;45.046;38.950;2022-11-18T05:17:50;15.08;70.95
64638;HTU21D;51049;45.046;38.950;2022-11-18T05:20:19;15.10;70.93
64638;HTU21D;51049;45.046;38.950;2022-11-18T05:22:45;15.11;70.92
64638;HTU21D;51049;45.046;38.950;2022-11-18T05:25:11;15.13;70.85
64638;HTU21D;51049;45.046;38.950;2022-11-18T05:27:37;15.12;70.79
64638;HTU21D;51049;45.046;38.950;2022-11-18T05:30:04;15.02;70.71
64638;HTU21D;51049;45.046;38.950;2022-11-18T05:32:30;14.81;70.77
64638;HTU21D;51049;45.046;38.950;2022-11-18T05:34:56;14.56;71.02
64638;HTU21D;51049;45.046;38.950;2022-11-18T05:37:26;14.30;71.33
64638;HTU21D;51049;45.046;38.950;2022-11-18T05:39:54;14.09;71.59
64638;HTU21D;51049;45.046;38.950;2022-11-18T05:42:28;13.91;71.75
64638;HTU21D;51049;45.046;38.950;2022-11-18T05:45:13;13.75;71.93
64638;HTU21D;51049;45.046;38.950;2022-11-18T05:47:40;13.65;72.02
64638;HTU21D;51049;45.046;38.950;2022-11-18T05:50:24;13.58;72.05
64638;HTU21D;51049;45.046;38.950;2022-11-18T05:52:54;13.53;72.08
64638;HTU21D;51049;45.046;38.950;2022-11-18T05:55:30;13.47;72.08
64638;HTU21D;51049;45.046;38.950;2022-11-18T05:58:05;13.39;72.10
64638;HTU21D;51049;45.046;38.950;2022-11-18T06:00:35;13.35;72.14
64638;HTU21D;51049;45.046;38.950;2022-11-18T06:03:04;13.33;72.18
64638;HTU21D;51049;45.046;38.950;2022-11-18T06:05:34;13.30;72.19
64638;HTU21D;51049;45.046;38.950;2022-11-18T06:08:09;13.32;72.19
64638;HTU21D;51049;45.046;38.950;2022-11-18T06:10:40;13.37;72.17
64638;HTU21D;51049;45.046;38.950;2022-11-18T06:13:09;13.43;72.11
64638;HTU21D;51049;45.046;38.950;2022-11-18T06:15:40;13.49;72.05
64638;HTU21D;51049;45.046;38.950;2022-11-18T06:18:22;13.51;72.00
64638;HTU21D;51049;45.046;38.950;2022-11-18T06:20:55;13.53;71.96
64638;HTU21D;51049;45.046;38.950;2022-11-18T06:23:23;13.51;71.99
64638;HTU21D;51049;45.046;38.950;2022-11-18T06:25:50;13.52;72.00
64638;HTU21D;51049;45.046;38.950;2022-11-18T06:28:19;13.51;71.99
64638;HTU21D;51049;45.046;38.950;2022-11-18T06:30:49;13.45;71.98
64638;HTU21D;51049;45.046;38.950;2022-11-18T06:33:18;13.38;72.04
64638;HTU21D;51049;45.046;38.950;2022-11-18T06:35:44;13.33;72.06
64638;HTU21D;51049;45.046;38.950;2022-11-18T06:38:10;13.25;72.05
64638;HTU21D;51049;45.046;38.950;2022-11-18T06:40:36;13.20;72.10
64638;HTU21D;51049;45.046;38.950;2022-11-18T06:43:06;13.12;72.15
64638;HTU21D;51049;45.046;38.950;2022-11-18T06:45:51;13.07;72.15
64638;HTU21D;51049;45.046;38.950;2022-11-18T06:48:36;13.03;72.16
64638;HTU21D;51049;45.046;38.950;2022-11-18T06:51:06;12.99;72.17
64638;HTU21D;51049;45.046;38.950;2022-11-18T06:53:33;12.93;72.18
64638;HTU21D;51049;45.046;38.950;2022-11-18T06:56:04;12.89;72.21
64638;HTU21D;51049;45.046;38.950;2022-11-18T06:58:34;12.86;72.23
64638;HTU21D;51049;45.046;38.950;2022-11-18T07:01:21;12.82;72.28
64638;HTU21D;51049;45.046;38.950;2022-11-18T07:03:47;12.82;72.25
64638;HTU21D;51049;45.046;38.950;2022-11-18T07:06:17;12.88;72.23
64638;HTU21D;51049;45.046;38.950;2022-11-18T07:08:44;12.93;72.19
64638;HTU21D;51049;45.046;38.950;2022-11-18T07:11:15;13.05;72.13
64638;HTU21D;51049;45.046;38.950;2022-11-18T07:13:45;13.19;72.00
64638;HTU21D;51049;45.046;38.950;2022-11-18T07:16:14;13.32;71.90
64638;HTU21D;51049;45.046;38.950;2022-11-18T07:18:44;13.43;71.77
64638;HTU21D;51049;45.046;38.950;2022-11-18T07:21:18;13.49;71.65
64638;HTU21D;51049;45.046;38.950;2022-11-18T07:23:48;13.50;71.67
64638;HTU21D;51049;45.046;38.950;2022-11-18T07:26:15;13.53;71.63
64638;HTU21D;51049;45.046;38.950;2022-11-18T07:28:42;13.54;71.64
64638;HTU21D;51049;45.046;38.950;2022-11-18T07:31:13;13.51;71.66
64638;HTU21D;51049;45.046;38.950;2022-11-18T07:33:46;13.45;71.58
64638;HTU21D;51049;45.046;38.950;2022-11-18T07:36:18;13.34;71.69
64638;HTU21D;51049;45.046;38.950;2022-11-18T07:38:47;13.27;71.85
64638;HTU21D;51049;45.046;38.950;2022-11-18T07:41:19;13.26;71.92
64638;HTU21D;51049;45.046;38.950;2022-11-18T07:43:46;13.30;71.90
64638;HTU21D;51049;45.046;38.950;2022-11-18T07:46:22;13.37;71.86
64638;HTU21D;51049;45.046;38.950;2022-11-18T07:48:58;13.46;71.80
64638;HTU21D;51049;45.046;38.950;2022-11-18T07:51:27;13.60;71.71
64638;HTU21D;51049;45.046;38.950;2022-11-18T07:53:54;13.71;71.56
64638;HTU21D;51049;45.046;38.950;2022-11-18T07:56:26;13.76;71.41
64638;HTU21D;51049;45.046;38.950;2022-11-18T07:58:53;13.76;71.38
64638;HTU21D;51049;45.046;38.950;2022-11-18T08:01:21;13.74;71.41
64638;HTU21D;51049;45.046;38.950;2022-11-18T08:03:48;13.69;71.39
64638;HTU21D;51049;45.046;38.950;2022-11-18T08:06:16;13.66;71.40
64638;HTU21D;51049;45.046;38.950;2022-11-18T08:08:43;13.61;71.45
64638;HTU21D;51049;45.046;38.950;2022-11-18T08:11:14;13.58;71.45
64638;HTU21D;51049;45.046;38.950;2022-11-18T08:13:40;13.54;71.51
64638;HTU21D;51049;45.046;38.950;2022-11-18T08:16:15;13.50;71.54
64638;HTU21D;51049;45.046;38.950;2022-11-18T08:18:48;13.45;71.50
64638;HTU21D;51049;45.046;38.950;2022-11-18T08:21:19;13.34;71.56
64638;HTU21D;51049;45.046;38.950;2022-11-18T08:23:55;13.26;71.69
64638;HTU21D;51049;45.046;38.950;2022-11-18T08:26:21;13.24;71.76
64638;HTU21D;51049;45.046;38.950;2022-11-18T08:28:47;13.25;71.80
64638;HTU21D;51049;45.046;38.950;2022-11-18T08:31:18;13.34;71.80
64638;HTU21D;51049;45.046;38.950;2022-11-18T08:33:45;13.45;71.74
64638;HTU21D;51049;45.046;38.950;2022-11-18T08:36:17;13.52;71.53
64638;HTU21D;51049;45.046;38.950;2022-11-18T08:38:43;13.53;71.47
64638;HTU21D;51049;45.046;38.950;2022-11-18T08:41:20;13.52;71.54
64638;HTU21D;51049;45.046;38.950;2022-11-18T08:43:50;13.51;71.51
64638;HTU21D;51049;45.046;38.950;2022-11-18T08:46:18;13.48;71.57
64638;HTU21D;51049;45.046;38.950;2022-11-18T08:48:45;13.47;71.58
64638;HTU21D;51049;45.046;38.950;2022-11-18T08:51:17;13.46;71.68
64638;HTU21D;51049;45.046;38.950;2022-11-18T08:53:45;13.51;71.73
64638;HTU21D;51049;45.046;38.950;2022-11-18T08:56:15;13.61;71.68
64638;HTU21D;51049;45.046;38.950;2022-11-18T08:58:42;13.74;71.59
64638;HTU21D;51049;45.046;38.950;2022-11-18T09:01:08;13.83;71.45
64638;HTU21D;51049;45.046;38.950;2022-11-18T09:03:35;13.93;71.40
64638;HTU21D;51049;45.046;38.950;2022-11-18T09:06:19;14.03;71.34
64638;HTU21D;51049;45.046;38.950;2022-11-18T09:08:46;14.18;71.35
64638;HTU21D;51049;45.046;38.950;2022-11-18T09:11:17;14.39;71.57
64638;HTU21D;51049;45.046;38.950;2022-11-18T09:13:50;14.60;71.67
64638;HTU21D;51049;45.046;38.950;2022-11-18T09:16:16;14.70;71.35
64638;HTU21D;51049;45.046;38.950;2022-11-18T09:18:42;14.68;71.04
64638;HTU21D;51049;45.046;38.950;2022-11-18T09:21:09;14.57;70.90
64638;HTU21D;51049;45.046;38.950;2022-11-18T09:23:37;14.43;70.82
64638;HTU21D;51049;45.046;38.950;2022-11-18T09:26:10;14.29;70.93
64638;HTU21D;51049;45.046;38.950;2022-11-18T09:28:38;14.20;71.00
64638;HTU21D;51049;45.046;38.950;2022-11-18T09:31:14;14.17;71.10
64638;HTU21D;51049;45.046;38.950;2022-11-18T09:33:41;14.19;71.05
64638;HTU21D;51049;45.046;38.950;2022-11-18T09:36:12;14.22;71.03
64638;HTU21D;51049;45.046;38.950;2022-11-18T09:38:42;14.25;70.95
64638;HTU21D;51049;45.046;38.950;2022-11-18T09:41:16;14.42;71.32
64638;HTU21D;51049;45.046;38.950;2022-11-18T09:44:27;14.98;72.22
64638;HTU21D;51049;45.046;38.950;2022-11-18T09:49:43;16.48;72.40
64638;HTU21D;51049;45.046;38.950;2022-11-18T09:54:44;17.48;70.89
64638;HTU21D;51049;45.046;38.950;2022-11-18T09:57:14;17.81;70.88
64638;HTU21D;51049;45.046;38.950;2022-11-18T09:59:44;18.12;70.40
64638;HTU21D;51049;45.046;38.950;2022-11-18T10:04:48;17.73;69.23
64638;HTU21D;51049;45.046;38.950;2022-11-18T10:07:20;17.33;69.29
64638;HTU21D;51049;45.046;38.950;2022-11-18T10:09:50;17.33;70.04
64638;HTU21D;51049;45.046;38.950;2022-11-18T10:12:27;17.76;70.12
64638;HTU21D;51049;45.046;38.950;2022-11-18T10:15:19;17.87;68.87
64638;HTU21D;51049;45.046;38.950;2022-11-18T10:20:48;18.06;69.06
64638;HTU21D;51049;45.046;38.950;2022-11-18T10:23:49;18.20;68.71
64638;HTU21D;51049;45.046;38.950;2022-11-18T10:26:38;18.22;68.17
64638;HTU21D;51049;45.046;38.950;2022-11-18T10:29:09;17.91;67.98
64638;HTU21D;51049;45.046;38.950;2022-11-18T10:31:53;17.47;67.91
64638;HTU21D;51049;45.046;38.950;2022-11-18T10:34:20;16.96;68.24
64638;HTU21D;51049;45.046;38.950;2022-11-18T10:37:05;16.50;68.43
64638;HTU21D;51049;45.046;38.950;2022-11-18T10:39:32;16.25;68.70
64638;HTU21D;51049;45.046;38.950;2022-11-18T10:42:04;16.05;68.69
64638;HTU21D;51049;45.046;38.950;2022-11-18T10:44:40;15.98;68.78
64638;HTU21D;51049;45.046;38.950;2022-11-18T10:47:29;16.15;68.93
64638;HTU21D;51049;45.046;38.950;2022-11-18T10:50:49;16.48;68.23
64638;HTU21D;51049;45.046;38.950;2022-11-18T10:56:00;16.24;68.07
64638;HTU21D;51049;45.046;38.950;2022-11-18T10:58:29;16.57;68.58
64638;HTU21D;51049;45.046;38.950;2022-11-18T11:03:58;17.68;67.78
64638;HTU21D;51049;45.046;38.950;2022-11-18T11:06:31;18.18;67.39
64638;HTU21D;51049;45.046;38.950;2022-11-18T11:11:41;19.18;66.56
64638;HTU21D;51049;45.046;38.950;2022-11-18T11:17:16;19.67;66.11
64638;HTU21D;51049;45.046;38.950;2022-11-18T11:20:19;20.36;65.67
64638;HTU21D;51049;45.046;38.950;2022-11-18T11:22:45;21.16;64.52
64638;HTU21D;51049;45.046;38.950;2022-11-18T11:25:25;21.65;63.56
64638;HTU21D;51049;45.046;38.950;2022-11-18T11:28:23;22.20;63.27
64638;HTU21D;51049;45.046;38.950;2022-11-18T11:37:51;23.40;61.12
64638;HTU21D;51049;45.046;38.950;2022-11-18T11:40:40;23.43;60.67
64638;HTU21D;51049;45.046;38.950;2022-11-18T11:43:25;23.45;60.69
64638;HTU21D;51049;45.046;38.950;2022-11-18T11:46:25;23.43;60.76
64638;HTU21D;51049;45.046;38.950;2022-11-18T11:49:17;23.37;60.72
64638;HTU21D;51049;45.046;38.950;2022-11-18T11:51:53;22.62;61.02
64638;HTU21D;51049;45.046;38.950;2022-11-18T11:57:48;20.77;62.82
64638;HTU21D;51049;45.046;38.950;2022-11-18T12:00:18;20.13;63.40
64638;HTU21D;51049;45.046;38.950;2022-11-18T12:05:46;19.31;63.73
64638;HTU21D;51049;45.046;38.950;2022-11-18T12:08:28;18.85;63.88
64638;HTU21D;51049;45.046;38.950;2022-11-18T12:13:52;18.05;64.27
64638;HTU21D;51049;45.046;38.950;2022-11-18T12:16:32;17.79;64.44
64638;HTU21D;51049;45.046;38.950;2022-11-18T12:19:11;17.55;64.29
64638;HTU21D;51049;45.046;38.950;2022-11-18T12:24:41;16.94;64.46
64638;HTU21D;51049;45.046;38.950;2022-11-18T12:27:12;16.56;64.69
64638;HTU21D;51049;45.046;38.950;2022-11-18T12:40:42;15.48;65.35
64638;HTU21D;51049;45.046;38.950;2022-11-18T12:46:46;15.16;65.33
64638;HTU21D;51049;45.046;38.950;2022-11-18T12:55:02;14.86;65.45
64638;HTU21D;51049;45.046;38.950;2022-11-18T12:57:33;14.86;65.34
64638;HTU21D;51049;45.046;38.950;2022-11-18T13:00:35;14.84;65.25
64638;HTU21D;51049;45.046;38.950;2022-11-18T13:03:25;14.79;65.17
64638;HTU21D;51049;45.046;38.950;2022-11-18T13:06:01;14.74;65.21
64638;HTU21D;51049;45.046;38.950;2022-11-18T13:08:36;14.71;65.21
64638;HTU21D;51049;45.046;38.950;2022-11-18T13:11:15;14.66;65.22
64638;HTU21D;51049;45.046;38.950;2022-11-18T13:14:00;14.57;65.30
64638;HTU21D;51049;45.046;38.950;2022-11-18T13:16:46;14.50;65.35
64638;HTU21D;51049;45.046;38.950;2022-11-18T13:19:34;14.40;65.38
64638;HTU21D;51049;45.046;38.950;2022-11-18T13:22:01;14.32;65.48
64638;HTU21D;51049;45.046;38.950;2022-11-18T13:24:50;14.24;65.63
64638;HTU21D;51049;45.046;38.950;2022-11-18T13:30:10;14.12;65.75
64638;HTU21D;51049;45.046;38.950;2022-11-18T13:32:42;14.06;65.82
64638;HTU21D;51049;45.046;38.950;2022-11-18T13:35:16;13.98;65.89
64638;HTU21D;51049;45.046;38.950;2022-11-18T13:37:58;13.91;65.95
64638;HTU21D;51049;45.046;38.950;2022-11-18T13:40:28;13.83;65.98
64638;HTU21D;51049;45.046;38.950;2022-11-18T13:42:57;13.74;65.99
64638;HTU21D;51049;45.046;38.950;2022-11-18T13:45:26;13.64;66.05
64638;HTU21D;51049;45.046;38.950;2022-11-18T13:48:11;13.51;66.17
64638;HTU21D;51049;45.046;38.950;2022-11-18T13:50:42;13.39;66.30
64638;HTU21D;51049;45.046;38.950;2022-11-18T13:53:33;13.24;66.43
64638;HTU21D;51049;45.046;38.950;2022-11-18T13:56:24;13.07;66.58
64638;HTU21D;51049;45.046;38.950;2022-11-18T13:58:56;12.96;66.69
64638;HTU21D;51049;45.046;38.950;2022-11-18T14:01:25;12.85;66.78
64638;HTU21D;51049;45.046;38.950;2022-11-18T14:03:57;12.75;66.88
64638;HTU21D;51049;45.046;38.950;2022-11-18T14:06:31;12.64;66.95
64638;HTU21D;51049;45.046;38.950;2022-11-18T14:12:20;12.46;67.08
64638;HTU21D;51049;45.046;38.950;2022-11-18T14:14:37;12.35;67.17
64638;HTU21D;51049;45.046;38.950;2022-11-18T14:17:25;12.26;67.24
64638;HTU21D;51049;45.046;38.950;2022-11-18T14:19:57;12.16;67.28
64638;HTU21D;51049;45.046;38.950;2022-11-18T14:22:28;12.10;67.34
64638;HTU21D;51049;45.046;38.950;2022-11-18T14:25:13;12.00;67.39
64638;HTU21D;51049;45.046;38.950;2022-11-18T14:27:42;11.93;67.45
64638;HTU21D;51049;45.046;38.950;2022-11-18T14:30:29;11.84;67.52
64638;HTU21D;51049;45.046;38.950;2022-11-18T14:33:22;11.74;67.60
64638;HTU21D;51049;45.046;38.950;2022-11-18T14:40:56;11.58;67.77
64638;HTU21D;51049;45.046;38.950;2022-11-18T14:43:24;11.52;67.78
64638;HTU21D;51049;45.046;38.950;2022-11-18T14:45:52;11.48;67.78
64638;HTU21D;51049;45.046;38.950;2022-11-18T14:48:21;11.42;67.80
64638;HTU21D;51049;45.046;38.950;2022-11-18T14:50:48;11.38;67.84
64638;HTU21D;51049;45.046;38.950;2022-11-18T14:53:14;11.30;67.88
64638;HTU21D;51049;45.046;38.950;2022-11-18T14:55:40;11.25;67.93
64638;HTU21D;51049;45.046;38.950;2022-11-18T14:58:13;11.19;67.99
64638;HTU21D;51049;45.046;38.950;2022-11-18T15:00:43;11.14;68.04
64638;HTU21D;51049;45.046;38.950;2022-11-18T15:03:12;11.09;68.07
64638;HTU21D;51049;45.046;38.950;2022-11-18T15:05:39;11.03;68.13
64638;HTU21D;51049;45.046;38.950;2022-11-18T15:08:06;11.00;68.17
64638;HTU21D;51049;45.046;38.950;2022-11-18T15:10:32;10.97;68.20
64638;HTU21D;51049;45.046;38.950;2022-11-18T15:12:59;10.93;68.26
64638;HTU21D;51049;45.046;38.950;2022-11-18T15:15:25;10.87;68.29
64638;HTU21D;51049;45.046;38.950;2022-11-18T15:17:51;10.84;68.34
64638;HTU21D;51049;45.046;38.950;2022-11-18T15:20:19;10.83;68.38
64638;HTU21D;51049;45.046;38.950;2022-11-18T15:22:48;10.80;68.40
64638;HTU21D;51049;45.046;38.950;2022-11-18T15:25:16;10.78;68.43
64638;HTU21D;51049;45.046;38.950;2022-11-18T15:27:53;10.75;68.44
64638;HTU21D;51049;45.046;38.950;2022-11-18T15:30:24;10.74;68.43
64638;HTU21D;51049;45.046;38.950;2022-11-18T15:32:55;10.70;68.46
64638;HTU21D;51049;45.046;38.950;2022-11-18T15:38:27;10.64;68.54
64638;HTU21D;51049;45.046;38.950;2022-11-18T15:41:25;10.59;68.59
64638;HTU21D;51049;45.046;38.950;2022-11-18T15:43:58;10.58;68.60
64638;HTU21D;51049;45.046;38.950;2022-11-18T15:46:30;10.56;68.62
64638;HTU21D;51049;45.046;38.950;2022-11-18T15:48:59;10.53;68.65
64638;HTU21D;51049;45.046;38.950;2022-11-18T15:51:30;10.54;68.69
64638;HTU21D;51049;45.046;38.950;2022-11-18T15:54:18;10.53;68.73
64638;HTU21D;51049;45.046;38.950;2022-11-18T15:57:14;10.53;68.71
64638;HTU21D;51049;45.046;38.950;2022-11-18T16:00:00;10.51;68.71
64638;HTU21D;51049;45.046;38.950;2022-11-18T16:02:32;10.49;68.75
64638;HTU21D;51049;45.046;38.950;2022-11-18T16:08:03;10.49;68.83
64638;HTU21D;51049;45.046;38.950;2022-11-18T16:10:42;10.48;68.84
64638;HTU21D;51049;45.046;38.950;2022-11-18T16:13:29;10.48;68.87
64638;HTU21D;51049;45.046;38.950;2022-11-18T16:15:58;10.49;68.87
64638;HTU21D;51049;45.046;38.950;2022-11-18T16:18:46;10.49;68.87
64638;HTU21D;51049;45.046;38.950;2022-11-18T16:21:16;10.48;68.89
64638;HTU21D;51049;45.046;38.950;2022-11-18T16:23:45;10.48;68.92
64638;HTU21D;51049;45.046;38.950;2022-11-18T16:26:33;10.45;68.95
64638;HTU21D;51049;45.046;38.950;2022-11-18T16:29:28;10.44;69.00
64638;HTU21D;51049;45.046;38.950;2022-11-18T16:32:20;10.43;69.01
64638;HTU21D;51049;45.046;38.950;2022-11-18T16:35:07;10.42;69.01
64638;HTU21D;51049;45.046;38.950;2022-11-18T16:37:56;10.40;69.03
64638;HTU21D;51049;45.046;38.950;2022-11-18T16:40:31;10.40;69.07
64638;HTU21D;51049;45.046;38.950;2022-11-18T16:43:02;10.39;69.08
64638;HTU21D;51049;45.046;38.950;2022-11-18T16:45:33;10.38;69.12
64638;HTU21D;51049;45.046;38.950;2022-11-18T16:48:07;10.35;69.14
64638;HTU21D;51049;45.046;38.950;2022-11-18T16:50:39;10.34;69.20
64638;HTU21D;51049;45.046;38.950;2022-11-18T16:53:08;10.31;69.24
64638;HTU21D;51049;45.046;38.950;2022-11-18T16:55:37;10.30;69.29
64638;HTU21D;51049;45.046;38.950;2022-11-18T16:58:06;10.29;69.33
64638;HTU21D;51049;45.046;38.950;2022-11-18T17:00:32;10.26;69.36
64638;HTU21D;51049;45.046;38.950;2022-11-18T17:02:58;10.25;69.42
64638;HTU21D;51049;45.046;38.950;2022-11-18T17:05:27;10.24;69.46
64638;HTU21D;51049;45.046;38.950;2022-11-18T17:07:53;10.24;69.49
64638;HTU21D;51049;45.046;38.950;2022-11-18T17:10:19;10.26;69.52
64638;HTU21D;51049;45.046;38.950;2022-11-18T17:12:55;10.28;69.52
64638;HTU21D;51049;45.046;38.950;2022-11-18T17:15:28;10.30;69.52
64638;HTU21D;51049;45.046;38.950;2022-11-18T17:18:05;10.34;69.49
64638;HTU21D;51049;45.046;38.950;2022-11-18T17:20:34;10.38;69.47